aviador You're here:

WMKD Decoded Metar

KUANTAN in MALAYSIA
Report Time2017-09-26 03:00:00
UTC Time2017-09-26 03:52:34
Flight Rules vfr VFR
WindVRB at 02 kt
Visibility9999 m
Phenomena:N/A
Clouds:Few 018 Hf
Broken 280 Hf
Expected CloudBase > 1,200 ft AGL from Temp-Dew spread
Ceiling28,000 ft
Temp28°C (ISA +13)
Dew Point25°C (84% RH)
Heat Index32.7°C
QNH1011 hPa
Density Alt2,041 ft
Elevation52 ft
Report Wrong Elevation
Raw Report
METAR WMKD 260300Z VRB02KT 9999 FEW018 BKN280 28/25 Q1011 NOSIG=

Extra information for WMKD:More info

Metar Taf Metar & Taf Last 4 Metars F.Rules Stats Wind Profile Meteogram Temp Stats Airport Information Weather charts Add Link Nearby VenuesMetar ALERT Operation Metar Decoded Social comments